sensor_id;sensor_type;location;lat;lon;timestamp;pressure;altitude;pressure_sealevel;temperature;humidity
61357;BME280;47227;46.752;23.576;2024-03-22T00:00:06;96592.02;;;4.10;52.81
61357;BME280;47227;46.752;23.576;2024-03-22T00:02:59;96588.41;;;4.02;52.78
61357;BME280;47227;46.752;23.576;2024-03-22T00:05:27;96585.33;;;3.98;52.56
61357;BME280;47227;46.752;23.576;2024-03-22T00:07:55;96586.52;;;3.95;52.51
61357;BME280;47227;46.752;23.576;2024-03-22T00:10:22;96585.95;;;3.91;52.88
61357;BME280;47227;46.752;23.576;2024-03-22T00:12:50;96580.69;;;3.88;52.88
61357;BME280;47227;46.752;23.576;2024-03-22T00:15:18;96579.35;;;3.83;53.13
61357;BME280;47227;46.752;23.576;2024-03-22T00:17:46;96575.02;;;3.79;52.86
61357;BME280;47227;46.752;23.576;2024-03-22T00:20:13;96576.90;;;3.76;53.07
61357;BME280;47227;46.752;23.576;2024-03-22T00:22:41;96575.78;;;3.74;53.02
61357;BME280;47227;46.752;23.576;2024-03-22T00:25:09;96571.42;;;3.73;53.23
61357;BME280;47227;46.752;23.576;2024-03-22T00:27:36;96575.97;;;3.71;55.26
61357;BME280;47227;46.752;23.576;2024-03-22T00:30:05;96572.45;;;3.67;53.94
61357;BME280;47227;46.752;23.576;2024-03-22T00:32:33;96573.65;;;3.67;53.53
61357;BME280;47227;46.752;23.576;2024-03-22T00:35:00;96577.36;;;3.67;55.49
61357;BME280;47227;46.752;23.576;2024-03-22T00:37:28;96575.96;;;3.67;53.98
61357;BME280;47227;46.752;23.576;2024-03-22T00:39:56;96575.95;;;3.65;53.94
61357;BME280;47227;46.752;23.576;2024-03-22T00:42:23;96576.64;;;3.64;53.70
61357;BME280;47227;46.752;23.576;2024-03-22T00:44:51;96574.31;;;3.63;53.91
61357;BME280;47227;46.752;23.576;2024-03-22T00:47:19;96579.82;;;3.62;53.59
61357;BME280;47227;46.752;23.576;2024-03-22T00:49:47;96577.30;;;3.62;53.48
61357;BME280;47227;46.752;23.576;2024-03-22T00:52:14;96576.42;;;3.60;53.51
61357;BME280;47227;46.752;23.576;2024-03-22T00:54:43;96576.38;;;3.59;53.53
61357;BME280;47227;46.752;23.576;2024-03-22T00:57:10;96573.19;;;3.59;53.45
61357;BME280;47227;46.752;23.576;2024-03-22T00:59:38;96572.86;;;3.57;53.26
61357;BME280;47227;46.752;23.576;2024-03-22T01:02:06;96571.98;;;3.55;53.72
61357;BME280;47227;46.752;23.576;2024-03-22T01:04:34;96567.16;;;3.55;55.52
61357;BME280;47227;46.752;23.576;2024-03-22T01:07:01;96562.49;;;3.55;55.42
61357;BME280;47227;46.752;23.576;2024-03-22T01:09:29;96559.97;;;3.53;55.49
61357;BME280;47227;46.752;23.576;2024-03-22T01:11:57;96559.70;;;3.49;55.58
61357;BME280;47227;46.752;23.576;2024-03-22T01:14:26;96558.03;;;3.48;54.83
61357;BME280;47227;46.752;23.576;2024-03-22T01:16:54;96558.98;;;3.48;54.70
61357;BME280;47227;46.752;23.576;2024-03-22T01:19:23;96560.81;;;3.49;54.69
61357;BME280;47227;46.752;23.576;2024-03-22T01:21:51;96565.05;;;3.47;54.54
61357;BME280;47227;46.752;23.576;2024-03-22T01:24:19;96564.31;;;3.41;55.78
61357;BME280;47227;46.752;23.576;2024-03-22T01:26:47;96565.13;;;3.35;55.09
61357;BME280;47227;46.752;23.576;2024-03-22T01:29:15;96565.71;;;3.29;55.80
61357;BME280;47227;46.752;23.576;2024-03-22T01:31:44;96562.37;;;3.24;55.25
61357;BME280;47227;46.752;23.576;2024-03-22T01:34:12;96556.77;;;3.19;55.03
61357;BME280;47227;46.752;23.576;2024-03-22T01:36:40;96557.57;;;3.17;55.57
61357;BME280;47227;46.752;23.576;2024-03-22T01:39:09;96554.67;;;3.14;55.18
61357;BME280;47227;46.752;23.576;2024-03-22T01:41:37;96557.98;;;3.10;55.18
61357;BME280;47227;46.752;23.576;2024-03-22T01:44:05;96557.27;;;3.01;57.65
61357;BME280;47227;46.752;23.576;2024-03-22T01:46:33;96551.84;;;2.96;56.62
61357;BME280;47227;46.752;23.576;2024-03-22T01:49:02;96548.24;;;2.93;57.48
61357;BME280;47227;46.752;23.576;2024-03-22T01:51:30;96549.34;;;2.90;57.43
61357;BME280;47227;46.752;23.576;2024-03-22T01:54:01;96548.20;;;2.87;57.43
61357;BME280;47227;46.752;23.576;2024-03-22T01:56:30;96549.95;;;2.84;59.02
61357;BME280;47227;46.752;23.576;2024-03-22T01:58:58;96545.24;;;2.81;57.86
61357;BME280;47227;46.752;23.576;2024-03-22T02:01:26;96542.35;;;2.78;58.90
61357;BME280;47227;46.752;23.576;2024-03-22T02:03:54;96545.41;;;2.76;58.41
61357;BME280;47227;46.752;23.576;2024-03-22T02:06:23;96542.57;;;2.74;57.73
61357;BME280;47227;46.752;23.576;2024-03-22T02:08:51;96535.78;;;2.73;57.10
61357;BME280;47227;46.752;23.576;2024-03-22T02:11:19;96531.88;;;2.72;57.17
61357;BME280;47227;46.752;23.576;2024-03-22T02:13:48;96533.98;;;2.72;57.47
61357;BME280;47227;46.752;23.576;2024-03-22T02:16:16;96532.90;;;2.71;57.83
61357;BME280;47227;46.752;23.576;2024-03-22T02:18:44;96533.41;;;2.68;58.56
61357;BME280;47227;46.752;23.576;2024-03-22T02:21:12;96540.27;;;2.66;58.86
61357;BME280;47227;46.752;23.576;2024-03-22T02:23:40;96536.89;;;2.64;58.56
61357;BME280;47227;46.752;23.576;2024-03-22T02:26:08;96539.46;;;2.61;58.56
61357;BME280;47227;46.752;23.576;2024-03-22T02:28:36;96538.92;;;2.58;58.73
61357;BME280;47227;46.752;23.576;2024-03-22T02:31:04;96536.84;;;2.56;58.40
61357;BME280;47227;46.752;23.576;2024-03-22T02:33:32;96533.20;;;2.53;58.27
61357;BME280;47227;46.752;23.576;2024-03-22T02:36:00;96534.02;;;2.51;58.84
61357;BME280;47227;46.752;23.576;2024-03-22T02:38:28;96530.48;;;2.47;59.04
61357;BME280;47227;46.752;23.576;2024-03-22T02:40:58;96529.74;;;2.44;58.75
61357;BME280;47227;46.752;23.576;2024-03-22T02:43:25;96529.09;;;2.40;59.50
61357;BME280;47227;46.752;23.576;2024-03-22T02:45:53;96527.16;;;2.35;60.13
61357;BME280;47227;46.752;23.576;2024-03-22T02:48:21;96523.70;;;2.31;59.56
61357;BME280;47227;46.752;23.576;2024-03-22T02:50:49;96519.22;;;2.27;59.18
61357;BME280;47227;46.752;23.576;2024-03-22T02:53:16;96518.54;;;2.24;59.67
61357;BME280;47227;46.752;23.576;2024-03-22T02:55:44;96516.11;;;2.21;59.83
61357;BME280;47227;46.752;23.576;2024-03-22T02:58:12;96515.73;;;2.19;59.95
61357;BME280;47227;46.752;23.576;2024-03-22T03:00:40;96511.40;;;2.16;60.73
61357;BME280;47227;46.752;23.576;2024-03-22T03:03:08;96510.15;;;2.12;60.89
61357;BME280;47227;46.752;23.576;2024-03-22T03:05:35;96510.04;;;2.10;60.85
61357;BME280;47227;46.752;23.576;2024-03-22T03:08:04;96512.94;;;2.07;60.72
61357;BME280;47227;46.752;23.576;2024-03-22T03:10:32;96510.21;;;2.04;61.73
61357;BME280;47227;46.752;23.576;2024-03-22T03:13:00;96505.76;;;2.01;61.93
61357;BME280;47227;46.752;23.576;2024-03-22T03:15:29;96509.64;;;1.99;61.54
61357;BME280;47227;46.752;23.576;2024-03-22T03:17:56;96512.96;;;1.97;61.51
61357;BME280;47227;46.752;23.576;2024-03-22T03:20:25;96509.69;;;1.96;61.56
61357;BME280;47227;46.752;23.576;2024-03-22T03:22:53;96510.59;;;1.94;61.38
61357;BME280;47227;46.752;23.576;2024-03-22T03:25:20;96511.32;;;1.94;61.37
61357;BME280;47227;46.752;23.576;2024-03-22T03:27:48;96512.80;;;1.93;61.72
61357;BME280;47227;46.752;23.576;2024-03-22T03:30:16;96521.48;;;1.91;62.00
61357;BME280;47227;46.752;23.576;2024-03-22T03:32:44;96524.69;;;1.90;62.58
61357;BME280;47227;46.752;23.576;2024-03-22T03:35:11;96525.14;;;1.88;62.65
61357;BME280;47227;46.752;23.576;2024-03-22T03:37:39;96524.73;;;1.86;62.68
61357;BME280;47227;46.752;23.576;2024-03-22T03:40:08;96523.72;;;1.84;62.89
61357;BME280;47227;46.752;23.576;2024-03-22T03:42:36;96523.32;;;1.83;62.93
61357;BME280;47227;46.752;23.576;2024-03-22T03:45:04;96522.86;;;1.82;62.05
61357;BME280;47227;46.752;23.576;2024-03-22T03:47:31;96521.48;;;1.81;62.09
61357;BME280;47227;46.752;23.576;2024-03-22T03:50:00;96521.55;;;1.81;61.85
61357;BME280;47227;46.752;23.576;2024-03-22T03:52:28;96520.31;;;1.81;61.96
61357;BME280;47227;46.752;23.576;2024-03-22T03:54:55;96521.95;;;1.82;61.72
61357;BME280;47227;46.752;23.576;2024-03-22T03:57:23;96522.58;;;1.82;62.44
61357;BME280;47227;46.752;23.576;2024-03-22T03:59:51;96522.79;;;1.78;64.50
61357;BME280;47227;46.752;23.576;2024-03-22T04:02:19;96519.30;;;1.79;64.83
61357;BME280;47227;46.752;23.576;2024-03-22T04:04:47;96525.64;;;1.85;64.22
61357;BME280;47227;46.752;23.576;2024-03-22T04:07:14;96524.89;;;1.86;63.75
61357;BME280;47227;46.752;23.576;2024-03-22T04:09:42;96527.45;;;1.87;63.06
61357;BME280;47227;46.752;23.576;2024-03-22T04:12:10;96528.45;;;1.89;62.95
61357;BME280;47227;46.752;23.576;2024-03-22T04:14:37;96526.47;;;1.90;62.58
61357;BME280;47227;46.752;23.576;2024-03-22T04:17:05;96530.54;;;1.90;62.75
61357;BME280;47227;46.752;23.576;2024-03-22T04:19:33;96531.28;;;1.90;62.59
61357;BME280;47227;46.752;23.576;2024-03-22T04:22:01;96533.52;;;1.90;62.75
61357;BME280;47227;46.752;23.576;2024-03-22T04:24:29;96535.10;;;1.88;62.81
61357;BME280;47227;46.752;23.576;2024-03-22T04:26:57;96536.19;;;1.86;62.46
61357;BME280;47227;46.752;23.576;2024-03-22T04:29:28;96537.02;;;1.85;62.88
61357;BME280;47227;46.752;23.576;2024-03-22T04:31:55;96539.00;;;1.83;62.57
61357;BME280;47227;46.752;23.576;2024-03-22T04:34:26;96544.98;;;1.82;62.63
61357;BME280;47227;46.752;23.576;2024-03-22T04:36:53;96543.91;;;1.81;63.03
61357;BME280;47227;46.752;23.576;2024-03-22T04:39:22;96547.66;;;1.79;63.86
61357;BME280;47227;46.752;23.576;2024-03-22T04:41:50;96547.17;;;1.77;63.63
61357;BME280;47227;46.752;23.576;2024-03-22T04:44:17;96548.32;;;1.76;63.50
61357;BME280;47227;46.752;23.576;2024-03-22T04:46:45;96555.77;;;1.74;63.84
61357;BME280;47227;46.752;23.576;2024-03-22T04:49:13;96558.34;;;1.72;63.88
61357;BME280;47227;46.752;23.576;2024-03-22T04:51:41;96560.83;;;1.70;63.88
61357;BME280;47227;46.752;23.576;2024-03-22T04:54:09;96566.53;;;1.67;64.47
61357;BME280;47227;46.752;23.576;2024-03-22T04:56:36;96564.53;;;1.66;64.36
61357;BME280;47227;46.752;23.576;2024-03-22T04:59:04;96566.27;;;1.64;64.62
61357;BME280;47227;46.752;23.576;2024-03-22T05:01:32;96568.57;;;1.64;64.21
61357;BME280;47227;46.752;23.576;2024-03-22T05:03:59;96569.92;;;1.64;64.44
61357;BME280;47227;46.752;23.576;2024-03-22T05:06:27;96574.34;;;1.64;64.68
61357;BME280;47227;46.752;23.576;2024-03-22T05:08:55;96570.92;;;1.65;64.35
61357;BME280;47227;46.752;23.576;2024-03-22T05:11:22;96568.45;;;1.69;63.93
61357;BME280;47227;46.752;23.576;2024-03-22T05:13:51;96570.34;;;1.75;65.00
61357;BME280;47227;46.752;23.576;2024-03-22T05:16:19;96569.44;;;1.80;64.92
61357;BME280;47227;46.752;23.576;2024-03-22T05:18:46;96572.21;;;1.82;65.31
61357;BME280;47227;46.752;23.576;2024-03-22T05:21:14;96570.09;;;1.85;64.76
61357;BME280;47227;46.752;23.576;2024-03-22T05:23:42;96573.09;;;1.92;65.17
61357;BME280;47227;46.752;23.576;2024-03-22T05:26:10;96574.13;;;1.96;64.68
61357;BME280;47227;46.752;23.576;2024-03-22T05:28:37;96579.21;;;2.03;64.00
61357;BME280;47227;46.752;23.576;2024-03-22T05:31:05;96579.87;;;2.11;63.72
61357;BME280;47227;46.752;23.576;2024-03-22T05:33:33;96582.30;;;2.24;63.74
61357;BME280;47227;46.752;23.576;2024-03-22T05:36:00;96580.96;;;2.38;63.92
61357;BME280;47227;46.752;23.576;2024-03-22T05:38:28;96581.30;;;2.47;63.63
61357;BME280;47227;46.752;23.576;2024-03-22T05:40:56;96584.88;;;2.55;63.32
61357;BME280;47227;46.752;23.576;2024-03-22T05:43:24;96584.28;;;2.67;63.04
61357;BME280;47227;46.752;23.576;2024-03-22T05:45:51;96588.93;;;2.77;62.75
61357;BME280;47227;46.752;23.576;2024-03-22T05:48:19;96591.08;;;2.84;62.38
61357;BME280;47227;46.752;23.576;2024-03-22T05:50:47;96594.73;;;2.89;62.09
61357;BME280;47227;46.752;23.576;2024-03-22T05:53:14;96590.52;;;2.93;62.06
61357;BME280;47227;46.752;23.576;2024-03-22T05:55:42;96590.04;;;2.98;61.75
61357;BME280;47227;46.752;23.576;2024-03-22T05:58:10;96591.91;;;3.02;61.59
61357;BME280;47227;46.752;23.576;2024-03-22T06:00:38;96590.41;;;3.07;61.52
61357;BME280;47227;46.752;23.576;2024-03-22T06:03:06;96586.89;;;3.12;61.35
61357;BME280;47227;46.752;23.576;2024-03-22T06:05:34;96590.18;;;3.17;61.13
61357;BME280;47227;46.752;23.576;2024-03-22T06:08:02;96590.15;;;3.21;61.20
61357;BME280;47227;46.752;23.576;2024-03-22T06:10:31;96589.70;;;3.25;60.92
61357;BME280;47227;46.752;23.576;2024-03-22T06:12:58;96590.59;;;3.28;60.89
61357;BME280;47227;46.752;23.576;2024-03-22T06:15:26;96592.75;;;3.31;60.97
61357;BME280;47227;46.752;23.576;2024-03-22T06:17:53;96586.63;;;3.35;60.95
61357;BME280;47227;46.752;23.576;2024-03-22T06:20:21;96586.05;;;3.39;61.04
61357;BME280;47227;46.752;23.576;2024-03-22T06:22:49;96582.15;;;3.44;60.75
61357;BME280;47227;46.752;23.576;2024-03-22T06:25:17;96580.07;;;3.50;60.65
61357;BME280;47227;46.752;23.576;2024-03-22T06:27:44;96578.64;;;3.55;60.81
61357;BME280;47227;46.752;23.576;2024-03-22T06:30:12;96581.85;;;3.61;60.78
61357;BME280;47227;46.752;23.576;2024-03-22T06:32:40;96578.71;;;3.66;60.83
61357;BME280;47227;46.752;23.576;2024-03-22T06:35:08;96579.00;;;3.70;60.95
61357;BME280;47227;46.752;23.576;2024-03-22T06:37:36;96581.56;;;3.73;60.86
61357;BME280;47227;46.752;23.576;2024-03-22T06:40:05;96582.06;;;3.77;60.86
61357;BME280;47227;46.752;23.576;2024-03-22T06:42:32;96580.63;;;3.82;60.81
61357;BME280;47227;46.752;23.576;2024-03-22T06:45:00;96578.28;;;3.86;61.16
61357;BME280;47227;46.752;23.576;2024-03-22T06:47:28;96578.48;;;3.92;60.85
61357;BME280;47227;46.752;23.576;2024-03-22T06:49:56;96579.38;;;3.96;61.08
61357;BME280;47227;46.752;23.576;2024-03-22T06:52:24;96582.14;;;4.01;60.73
61357;BME280;47227;46.752;23.576;2024-03-22T06:54:51;96582.78;;;4.05;60.33
61357;BME280;47227;46.752;23.576;2024-03-22T06:57:20;96583.79;;;4.12;60.32
61357;BME280;47227;46.752;23.576;2024-03-22T06:59:48;96582.44;;;4.18;60.38
61357;BME280;47227;46.752;23.576;2024-03-22T07:02:16;96583.79;;;4.19;60.33
61357;BME280;47227;46.752;23.576;2024-03-22T07:04:46;96583.20;;;4.25;60.48
61357;BME280;47227;46.752;23.576;2024-03-22T07:07:13;96584.66;;;4.35;61.35
61357;BME280;47227;46.752;23.576;2024-03-22T07:09:41;96583.00;;;4.45;61.45
61357;BME280;47227;46.752;23.576;2024-03-22T07:12:10;96577.95;;;4.56;61.07
61357;BME280;47227;46.752;23.576;2024-03-22T07:14:38;96577.82;;;4.69;61.00
61357;BME280;47227;46.752;23.576;2024-03-22T07:17:06;96577.09;;;4.84;60.89
61357;BME280;47227;46.752;23.576;2024-03-22T07:19:34;96577.69;;;4.97;60.51
61357;BME280;47227;46.752;23.576;2024-03-22T07:22:02;96577.45;;;5.10;59.79
61357;BME280;47227;46.752;23.576;2024-03-22T07:24:30;96576.58;;;5.20;59.44
61357;BME280;47227;46.752;23.576;2024-03-22T07:26:58;96574.16;;;5.34;59.13
61357;BME280;47227;46.752;23.576;2024-03-22T07:29:25;96576.60;;;5.50;59.46
61357;BME280;47227;46.752;23.576;2024-03-22T07:31:53;96574.39;;;5.63;58.58
61357;BME280;47227;46.752;23.576;2024-03-22T07:34:21;96577.98;;;5.75;58.28
61357;BME280;47227;46.752;23.576;2024-03-22T07:36:48;96579.71;;;5.88;58.14
61357;BME280;47227;46.752;23.576;2024-03-22T07:39:16;96582.01;;;5.99;58.10
61357;BME280;47227;46.752;23.576;2024-03-22T07:41:44;96579.27;;;6.10;56.84
61357;BME280;47227;46.752;23.576;2024-03-22T07:44:11;96577.55;;;6.22;56.80
61357;BME280;47227;46.752;23.576;2024-03-22T07:46:39;96575.90;;;6.35;56.39
61357;BME280;47227;46.752;23.576;2024-03-22T07:49:07;96581.97;;;6.53;56.84
61357;BME280;47227;46.752;23.576;2024-03-22T07:51:35;96578.23;;;6.70;56.56
61357;BME280;47227;46.752;23.576;2024-03-22T07:54:02;96579.73;;;6.90;56.53
61357;BME280;47227;46.752;23.576;2024-03-22T07:56:30;96583.34;;;7.07;54.42
61357;BME280;47227;46.752;23.576;2024-03-22T07:58:58;96583.24;;;7.19;54.87
61357;BME280;47227;46.752;23.576;2024-03-22T08:01:26;96580.96;;;7.30;54.30
61357;BME280;47227;46.752;23.576;2024-03-22T08:03:54;96580.17;;;7.40;53.98
61357;BME280;47227;46.752;23.576;2024-03-22T08:06:22;96581.74;;;7.52;54.17
61357;BME280;47227;46.752;23.576;2024-03-22T08:08:49;96575.74;;;7.65;53.34
61357;BME280;47227;46.752;23.576;2024-03-22T08:11:17;96577.48;;;7.84;52.61
61357;BME280;47227;46.752;23.576;2024-03-22T08:13:45;96573.80;;;8.02;52.03
61357;BME280;47227;46.752;23.576;2024-03-22T08:16:12;96574.06;;;8.20;51.57
61357;BME280;47227;46.752;23.576;2024-03-22T08:18:40;96573.58;;;8.37;51.73
61357;BME280;47227;46.752;23.576;2024-03-22T08:21:08;96577.41;;;8.55;51.58
61357;BME280;47227;46.752;23.576;2024-03-22T08:23:36;96575.71;;;8.70;51.51
61357;BME280;47227;46.752;23.576;2024-03-22T08:26:03;96571.95;;;8.89;51.61
61357;BME280;47227;46.752;23.576;2024-03-22T08:28:33;96570.86;;;9.10;51.76
61357;BME280;47227;46.752;23.576;2024-03-22T08:31:06;96570.61;;;9.31;51.49
61357;BME280;47227;46.752;23.576;2024-03-22T08:33:34;96565.58;;;9.49;50.10
61357;BME280;47227;46.752;23.576;2024-03-22T08:36:01;96568.64;;;9.62;48.17
61357;BME280;47227;46.752;23.576;2024-03-22T08:38:29;96564.61;;;9.73;48.87
61357;BME280;47227;46.752;23.576;2024-03-22T08:40:57;96570.06;;;9.89;48.27
61357;BME280;47227;46.752;23.576;2024-03-22T08:43:24;96574.91;;;9.98;46.98
61357;BME280;47227;46.752;23.576;2024-03-22T08:45:56;96569.77;;;10.13;47.58
61357;BME280;47227;46.752;23.576;2024-03-22T08:48:25;96572.96;;;10.28;46.84
61357;BME280;47227;46.752;23.576;2024-03-22T08:50:53;96571.58;;;10.33;45.06
61357;BME280;47227;46.752;23.576;2024-03-22T08:53:21;96565.52;;;10.25;43.81
61357;BME280;47227;46.752;23.576;2024-03-22T08:55:49;96563.80;;;10.26;43.90
61357;BME280;47227;46.752;23.576;2024-03-22T08:58:17;96563.98;;;10.36;44.99
61357;BME280;47227;46.752;23.576;2024-03-22T09:00:45;96567.11;;;10.52;44.61
61357;BME280;47227;46.752;23.576;2024-03-22T09:03:13;96563.70;;;10.64;43.70
61357;BME280;47227;46.752;23.576;2024-03-22T09:05:42;96567.29;;;10.78;44.04
61357;BME280;47227;46.752;23.576;2024-03-22T09:08:27;96568.02;;;10.85;43.46
61357;BME280;47227;46.752;23.576;2024-03-22T09:10:56;96563.87;;;10.93;43.04
61357;BME280;47227;46.752;23.576;2024-03-22T09:13:25;96562.60;;;11.08;42.63
61357;BME280;47227;46.752;23.576;2024-03-22T09:15:59;96562.08;;;11.21;43.58
61357;BME280;47227;46.752;23.576;2024-03-22T09:18:27;96560.38;;;11.37;43.35
61357;BME280;47227;46.752;23.576;2024-03-22T09:20:55;96557.28;;;11.47;42.69
61357;BME280;47227;46.752;23.576;2024-03-22T09:23:24;96559.46;;;11.53;42.77
61357;BME280;47227;46.752;23.576;2024-03-22T09:25:51;96558.40;;;11.62;43.16
61357;BME280;47227;46.752;23.576;2024-03-22T09:28:19;96553.55;;;11.75;42.77
61357;BME280;47227;46.752;23.576;2024-03-22T09:30:47;96551.73;;;11.90;43.23
61357;BME280;47227;46.752;23.576;2024-03-22T09:33:24;96552.02;;;12.10;42.57
61357;BME280;47227;46.752;23.576;2024-03-22T09:35:52;96552.62;;;11.91;39.62
61357;BME280;47227;46.752;23.576;2024-03-22T09:38:21;96550.05;;;11.78;39.61
61357;BME280;47227;46.752;23.576;2024-03-22T09:40:49;96548.87;;;11.84;40.62
61357;BME280;47227;46.752;23.576;2024-03-22T09:43:22;96544.41;;;12.04;40.79
61357;BME280;47227;46.752;23.576;2024-03-22T09:45:51;96540.27;;;12.26;40.64
61357;BME280;47227;46.752;23.576;2024-03-22T09:48:19;96540.64;;;12.34;38.21
61357;BME280;47227;46.752;23.576;2024-03-22T09:50:47;96537.52;;;12.31;38.08
61357;BME280;47227;46.752;23.576;2024-03-22T09:53:20;96537.08;;;12.43;39.42
61357;BME280;47227;46.752;23.576;2024-03-22T09:55:49;96539.14;;;12.59;39.86
61357;BME280;47227;46.752;23.576;2024-03-22T09:58:19;96539.21;;;12.70;39.83
61357;BME280;47227;46.752;23.576;2024-03-22T10:00:47;96531.96;;;12.81;39.09
61357;BME280;47227;46.752;23.576;2024-03-22T10:03:14;96530.93;;;12.88;38.62
61357;BME280;47227;46.752;23.576;2024-03-22T10:05:45;96529.38;;;13.11;37.98
61357;BME280;47227;46.752;23.576;2024-03-22T10:08:13;96526.83;;;13.29;38.81
61357;BME280;47227;46.752;23.576;2024-03-22T10:10:41;96521.19;;;13.42;37.48
61357;BME280;47227;46.752;23.576;2024-03-22T10:13:09;96520.13;;;13.56;37.56
61357;BME280;47227;46.752;23.576;2024-03-22T10:15:37;96521.33;;;13.72;37.75
61357;BME280;47227;46.752;23.576;2024-03-22T10:18:05;96518.28;;;13.76;35.94
61357;BME280;47227;46.752;23.576;2024-03-22T10:20:32;96511.80;;;13.81;36.53
61357;BME280;47227;46.752;23.576;2024-03-22T10:23:00;96507.91;;;13.86;36.02
61357;BME280;47227;46.752;23.576;2024-03-22T10:25:29;96512.65;;;13.86;36.26
61357;BME280;47227;46.752;23.576;2024-03-22T10:27:57;96508.82;;;14.00;36.42
61357;BME280;47227;46.752;23.576;2024-03-22T10:30:27;96506.98;;;14.12;36.72
61357;BME280;47227;46.752;23.576;2024-03-22T10:32:56;96505.55;;;14.28;36.75
61357;BME280;47227;46.752;23.576;2024-03-22T10:35:25;96503.44;;;14.27;34.02
61357;BME280;47227;46.752;23.576;2024-03-22T10:37:54;96499.27;;;14.13;34.27
61357;BME280;47227;46.752;23.576;2024-03-22T10:40:22;96493.58;;;14.12;34.88
61357;BME280;47227;46.752;23.576;2024-03-22T10:42:50;96493.52;;;14.16;35.13
61357;BME280;47227;46.752;23.576;2024-03-22T10:45:18;96492.21;;;14.22;35.82
61357;BME280;47227;46.752;23.576;2024-03-22T10:47:52;96492.30;;;14.38;35.91
61357;BME280;47227;46.752;23.576;2024-03-22T10:50:23;96490.14;;;14.50;34.94
61357;BME280;47227;46.752;23.576;2024-03-22T10:52:58;96489.70;;;14.64;35.05
61357;BME280;47227;46.752;23.576;2024-03-22T10:55:32;96485.77;;;14.78;34.33
61357;BME280;47227;46.752;23.576;2024-03-22T10:58:00;96487.64;;;14.85;33.42
61357;BME280;47227;46.752;23.576;2024-03-22T11:00:29;96481.99;;;14.83;34.18
61357;BME280;47227;46.752;23.576;2024-03-22T11:02:57;96480.43;;;14.93;34.03
61357;BME280;47227;46.752;23.576;2024-03-22T11:05:28;96476.79;;;14.90;33.40
61357;BME280;47227;46.752;23.576;2024-03-22T11:10:34;96470.91;;;14.98;33.77
61357;BME280;47227;46.752;23.576;2024-03-22T11:13:03;96468.48;;;15.10;34.29
61357;BME280;47227;46.752;23.576;2024-03-22T11:15:31;96467.73;;;15.26;33.82
61357;BME280;47227;46.752;23.576;2024-03-22T11:17:59;96465.98;;;15.46;34.31
61357;BME280;47227;46.752;23.576;2024-03-22T11:20:27;96463.45;;;15.64;33.53
61357;BME280;47227;46.752;23.576;2024-03-22T11:22:57;96456.67;;;15.47;32.36
61357;BME280;47227;46.752;23.576;2024-03-22T11:25:24;96453.52;;;15.59;32.60
61357;BME280;47227;46.752;23.576;2024-03-22T11:27:52;96447.02;;;15.78;32.62
61357;BME280;47227;46.752;23.576;2024-03-22T11:30:24;96439.91;;;16.09;32.66
61357;BME280;47227;46.752;23.576;2024-03-22T11:32:53;96438.48;;;16.31;31.38
61357;BME280;47227;46.752;23.576;2024-03-22T11:35:21;96434.16;;;16.51;31.41
61357;BME280;47227;46.752;23.576;2024-03-22T11:37:50;96426.17;;;16.79;30.61
61357;BME280;47227;46.752;23.576;2024-03-22T11:40:18;96425.98;;;16.93;28.09
61357;BME280;47227;46.752;23.576;2024-03-22T11:42:48;96419.35;;;17.07;28.11
61357;BME280;47227;46.752;23.576;2024-03-22T11:45:18;96417.25;;;17.22;27.82
61357;BME280;47227;46.752;23.576;2024-03-22T11:47:47;96417.57;;;17.44;27.59
61357;BME280;47227;46.752;23.576;2024-03-22T11:50:15;96415.43;;;17.63;27.00
61357;BME280;47227;46.752;23.576;2024-03-22T11:52:44;96414.58;;;17.74;27.15
61357;BME280;47227;46.752;23.576;2024-03-22T11:55:14;96414.20;;;17.85;26.96
61357;BME280;47227;46.752;23.576;2024-03-22T11:57:48;96413.17;;;17.94;26.85
61357;BME280;47227;46.752;23.576;2024-03-22T12:00:18;96408.70;;;18.01;27.36
61357;BME280;47227;46.752;23.576;2024-03-22T12:03:06;96403.98;;;17.66;26.53
61357;BME280;47227;46.752;23.576;2024-03-22T12:05:34;96405.48;;;17.66;26.97
61357;BME280;47227;46.752;23.576;2024-03-22T12:08:02;96402.17;;;17.66;26.59
61357;BME280;47227;46.752;23.576;2024-03-22T12:10:30;96405.13;;;17.54;26.63
61357;BME280;47227;46.752;23.576;2024-03-22T12:12:57;96408.14;;;17.32;26.33
61357;BME280;47227;46.752;23.576;2024-03-22T12:15:25;96402.75;;;17.15;26.62
61357;BME280;47227;46.752;23.576;2024-03-22T12:17:53;96400.58;;;17.12;27.52
61357;BME280;47227;46.752;23.576;2024-03-22T12:20:21;96401.29;;;17.30;27.57
61357;BME280;47227;46.752;23.576;2024-03-22T12:22:49;96396.66;;;17.41;27.18
61357;BME280;47227;46.752;23.576;2024-03-22T12:25:17;96396.38;;;17.43;26.99
61357;BME280;47227;46.752;23.576;2024-03-22T12:27:46;96397.11;;;17.40;26.94
61357;BME280;47227;46.752;23.576;2024-03-22T12:30:14;96390.29;;;17.41;27.44
61357;BME280;47227;46.752;23.576;2024-03-22T12:32:42;96389.30;;;17.49;27.83
61357;BME280;47227;46.752;23.576;2024-03-22T12:35:12;96384.00;;;17.55;28.02
61357;BME280;47227;46.752;23.576;2024-03-22T12:37:40;96388.24;;;17.61;27.62
61357;BME280;47227;46.752;23.576;2024-03-22T12:40:08;96386.65;;;17.58;27.68
61357;BME280;47227;46.752;23.576;2024-03-22T12:42:37;96384.66;;;17.48;28.00
61357;BME280;47227;46.752;23.576;2024-03-22T12:45:05;96384.17;;;17.45;28.62
61357;BME280;47227;46.752;23.576;2024-03-22T12:47:34;96382.65;;;17.42;28.15
61357;BME280;47227;46.752;23.576;2024-03-22T12:50:01;96381.36;;;17.28;27.99
61357;BME280;47227;46.752;23.576;2024-03-22T12:52:29;96379.02;;;17.10;28.44
61357;BME280;47227;46.752;23.576;2024-03-22T12:54:57;96375.64;;;16.93;28.75
61357;BME280;47227;46.752;23.576;2024-03-22T12:57:24;96378.29;;;16.78;29.31
61357;BME280;47227;46.752;23.576;2024-03-22T12:59:52;96376.05;;;16.70;29.92
61357;BME280;47227;46.752;23.576;2024-03-22T13:02:20;96374.64;;;16.74;30.22
61357;BME280;47227;46.752;23.576;2024-03-22T13:04:47;96370.61;;;16.80;30.04